sensor_id;sensor_type;location;lat;lon;timestamp;P1;durP1;ratioP1;P2;durP2;ratioP2
18168;SDS011;49877;50.398;30.324;2022-11-12T00:00:29;34.13;;;20.80;;
18168;SDS011;49877;50.398;30.324;2022-11-12T00:02:56;36.20;;;20.43;;
18168;SDS011;49877;50.398;30.324;2022-11-12T00:05:23;29.03;;;18.87;;
18168;SDS011;49877;50.398;30.324;2022-11-12T00:07:50;32.70;;;19.33;;
18168;SDS011;49877;50.398;30.324;2022-11-12T00:10:17;33.50;;;20.93;;
18168;SDS011;49877;50.398;30.324;2022-11-12T00:12:44;29.27;;;18.97;;
18168;SDS011;49877;50.398;30.324;2022-11-12T00:15:13;31.00;;;18.33;;
18168;SDS011;49877;50.398;30.324;2022-11-12T00:17:39;28.80;;;18.33;;
18168;SDS011;49877;50.398;30.324;2022-11-12T00:20:07;35.17;;;20.03;;
18168;SDS011;49877;50.398;30.324;2022-11-12T00:22:34;32.90;;;18.30;;
18168;SDS011;49877;50.398;30.324;2022-11-12T00:25:01;31.17;;;19.23;;
18168;SDS011;49877;50.398;30.324;2022-11-12T00:27:30;29.40;;;18.47;;
18168;SDS011;49877;50.398;30.324;2022-11-12T00:29:57;35.00;;;18.90;;
18168;SDS011;49877;50.398;30.324;2022-11-12T00:32:25;28.83;;;17.73;;
18168;SDS011;49877;50.398;30.324;2022-11-12T00:34:52;31.40;;;17.60;;
18168;SDS011;49877;50.398;30.324;2022-11-12T00:37:19;35.27;;;19.33;;
18168;SDS011;49877;50.398;30.324;2022-11-12T00:39:47;30.07;;;17.53;;
18168;SDS011;49877;50.398;30.324;2022-11-12T00:42:14;30.50;;;17.17;;
18168;SDS011;49877;50.398;30.324;2022-11-12T00:44:41;27.63;;;18.13;;
18168;SDS011;49877;50.398;30.324;2022-11-12T00:47:07;28.77;;;18.13;;
18168;SDS011;49877;50.398;30.324;2022-11-12T00:49:36;31.23;;;18.10;;
18168;SDS011;49877;50.398;30.324;2022-11-12T00:52:03;28.87;;;17.07;;
18168;SDS011;49877;50.398;30.324;2022-11-12T00:54:29;30.83;;;17.03;;
18168;SDS011;49877;50.398;30.324;2022-11-12T00:56:56;25.80;;;16.60;;
18168;SDS011;49877;50.398;30.324;2022-11-12T00:59:23;27.73;;;16.93;;
18168;SDS011;49877;50.398;30.324;2022-11-12T01:01:50;25.83;;;16.30;;
18168;SDS011;49877;50.398;30.324;2022-11-12T01:04:17;24.33;;;15.90;;
18168;SDS011;49877;50.398;30.324;2022-11-12T01:06:45;33.23;;;17.17;;
18168;SDS011;49877;50.398;30.324;2022-11-12T01:09:11;26.43;;;16.13;;
18168;SDS011;49877;50.398;30.324;2022-11-12T01:11:39;29.97;;;16.93;;
18168;SDS011;49877;50.398;30.324;2022-11-12T01:14:07;25.07;;;16.87;;
18168;SDS011;49877;50.398;30.324;2022-11-12T01:16:35;27.03;;;15.57;;
18168;SDS011;49877;50.398;30.324;2022-11-12T01:19:04;24.20;;;15.37;;
18168;SDS011;49877;50.398;30.324;2022-11-12T01:21:32;25.03;;;15.70;;
18168;SDS011;49877;50.398;30.324;2022-11-12T01:24:04;27.17;;;15.90;;
18168;SDS011;49877;50.398;30.324;2022-11-12T01:26:32;24.43;;;15.87;;
18168;SDS011;49877;50.398;30.324;2022-11-12T01:28:59;22.83;;;15.00;;
18168;SDS011;49877;50.398;30.324;2022-11-12T01:31:26;25.93;;;15.63;;
18168;SDS011;49877;50.398;30.324;2022-11-12T01:33:56;26.20;;;15.80;;
18168;SDS011;49877;50.398;30.324;2022-11-12T01:36:24;23.53;;;15.47;;
18168;SDS011;49877;50.398;30.324;2022-11-12T01:38:53;25.00;;;16.00;;
18168;SDS011;49877;50.398;30.324;2022-11-12T01:41:23;26.57;;;15.40;;
18168;SDS011;49877;50.398;30.324;2022-11-12T01:44:05;24.10;;;14.67;;
18168;SDS011;49877;50.398;30.324;2022-11-12T01:46:33;26.90;;;15.07;;
18168;SDS011;49877;50.398;30.324;2022-11-12T01:49:04;25.03;;;15.37;;
18168;SDS011;49877;50.398;30.324;2022-11-12T01:51:36;25.87;;;15.10;;
18168;SDS011;49877;50.398;30.324;2022-11-12T01:54:08;30.60;;;16.00;;
18168;SDS011;49877;50.398;30.324;2022-11-12T01:56:39;26.47;;;16.53;;
18168;SDS011;49877;50.398;30.324;2022-11-12T01:59:07;32.30;;;16.70;;
18168;SDS011;49877;50.398;30.324;2022-11-12T02:01:42;23.30;;;14.37;;
18168;SDS011;49877;50.398;30.324;2022-11-12T02:04:09;25.77;;;15.57;;
18168;SDS011;49877;50.398;30.324;2022-11-12T02:06:36;22.47;;;14.23;;
18168;SDS011;49877;50.398;30.324;2022-11-12T02:09:04;27.23;;;15.47;;
18168;SDS011;49877;50.398;30.324;2022-11-12T02:11:31;21.33;;;13.93;;
18168;SDS011;49877;50.398;30.324;2022-11-12T02:13:59;22.27;;;14.20;;
18168;SDS011;49877;50.398;30.324;2022-11-12T02:16:26;23.60;;;14.43;;
18168;SDS011;49877;50.398;30.324;2022-11-12T02:18:56;27.73;;;16.13;;
18168;SDS011;49877;50.398;30.324;2022-11-12T02:21:25;25.60;;;14.97;;
18168;SDS011;49877;50.398;30.324;2022-11-12T02:23:56;26.00;;;15.67;;
18168;SDS011;49877;50.398;30.324;2022-11-12T02:26:28;22.83;;;14.10;;
18168;SDS011;49877;50.398;30.324;2022-11-12T02:28:57;21.77;;;14.50;;
18168;SDS011;49877;50.398;30.324;2022-11-12T02:31:24;22.13;;;14.23;;
18168;SDS011;49877;50.398;30.324;2022-11-12T02:33:51;25.57;;;15.27;;
18168;SDS011;49877;50.398;30.324;2022-11-12T02:36:18;23.17;;;14.63;;
18168;SDS011;49877;50.398;30.324;2022-11-12T02:38:47;21.63;;;13.60;;
18168;SDS011;49877;50.398;30.324;2022-11-12T02:41:14;26.13;;;14.67;;
18168;SDS011;49877;50.398;30.324;2022-11-12T02:43:41;26.17;;;14.80;;
18168;SDS011;49877;50.398;30.324;2022-11-12T02:46:08;22.97;;;14.43;;
18168;SDS011;49877;50.398;30.324;2022-11-12T02:48:35;22.27;;;13.90;;
18168;SDS011;49877;50.398;30.324;2022-11-12T02:51:02;25.77;;;14.87;;
18168;SDS011;49877;50.398;30.324;2022-11-12T02:53:30;23.23;;;13.67;;
18168;SDS011;49877;50.398;30.324;2022-11-12T02:55:58;27.33;;;14.60;;
18168;SDS011;49877;50.398;30.324;2022-11-12T02:58:25;26.77;;;13.87;;
18168;SDS011;49877;50.398;30.324;2022-11-12T03:00:53;29.53;;;15.93;;
18168;SDS011;49877;50.398;30.324;2022-11-12T03:03:20;23.30;;;14.50;;
18168;SDS011;49877;50.398;30.324;2022-11-12T03:05:53;21.63;;;13.97;;
18168;SDS011;49877;50.398;30.324;2022-11-12T03:08:21;23.13;;;14.03;;
18168;SDS011;49877;50.398;30.324;2022-11-12T03:10:48;25.13;;;15.20;;
18168;SDS011;49877;50.398;30.324;2022-11-12T03:13:16;25.03;;;15.00;;
18168;SDS011;49877;50.398;30.324;2022-11-12T03:15:43;23.57;;;14.03;;
18168;SDS011;49877;50.398;30.324;2022-11-12T03:18:10;22.77;;;14.10;;
18168;SDS011;49877;50.398;30.324;2022-11-12T03:20:37;23.20;;;14.87;;
18168;SDS011;49877;50.398;30.324;2022-11-12T03:23:04;21.77;;;14.53;;
18168;SDS011;49877;50.398;30.324;2022-11-12T03:25:33;24.47;;;15.70;;
18168;SDS011;49877;50.398;30.324;2022-11-12T03:28:02;24.73;;;14.90;;
18168;SDS011;49877;50.398;30.324;2022-11-12T03:30:33;30.87;;;16.23;;
18168;SDS011;49877;50.398;30.324;2022-11-12T03:33:01;26.87;;;15.40;;
18168;SDS011;49877;50.398;30.324;2022-11-12T03:35:28;26.03;;;15.60;;
18168;SDS011;49877;50.398;30.324;2022-11-12T03:37:54;23.23;;;15.30;;
18168;SDS011;49877;50.398;30.324;2022-11-12T03:40:24;29.80;;;16.50;;
18168;SDS011;49877;50.398;30.324;2022-11-12T03:42:52;26.60;;;15.67;;
18168;SDS011;49877;50.398;30.324;2022-11-12T03:45:19;26.50;;;15.23;;
18168;SDS011;49877;50.398;30.324;2022-11-12T03:47:50;24.43;;;16.10;;
18168;SDS011;49877;50.398;30.324;2022-11-12T03:50:18;28.03;;;16.17;;
18168;SDS011;49877;50.398;30.324;2022-11-12T03:52:47;27.50;;;15.30;;
18168;SDS011;49877;50.398;30.324;2022-11-12T06:49:00;34.33;;;20.30;;
18168;SDS011;49877;50.398;30.324;2022-11-12T06:51:27;33.17;;;20.27;;
18168;SDS011;49877;50.398;30.324;2022-11-12T06:53:54;31.13;;;20.30;;
18168;SDS011;49877;50.398;30.324;2022-11-12T06:56:21;28.37;;;19.30;;
18168;SDS011;49877;50.398;30.324;2022-11-12T06:58:48;33.27;;;20.30;;
18168;SDS011;49877;50.398;30.324;2022-11-12T07:01:15;29.87;;;19.47;;
18168;SDS011;49877;50.398;30.324;2022-11-12T07:03:42;32.40;;;20.13;;
18168;SDS011;49877;50.398;30.324;2022-11-12T07:06:11;34.73;;;20.87;;
18168;SDS011;49877;50.398;30.324;2022-11-12T07:08:42;35.40;;;20.33;;
18168;SDS011;49877;50.398;30.324;2022-11-12T07:11:09;31.13;;;20.13;;
18168;SDS011;49877;50.398;30.324;2022-11-12T07:13:36;28.13;;;18.77;;
18168;SDS011;49877;50.398;30.324;2022-11-12T07:16:04;32.60;;;19.10;;
18168;SDS011;49877;50.398;30.324;2022-11-12T07:18:33;31.13;;;19.53;;
18168;SDS011;49877;50.398;30.324;2022-11-12T07:21:01;34.37;;;21.27;;
18168;SDS011;49877;50.398;30.324;2022-11-12T07:23:30;33.90;;;20.37;;
18168;SDS011;49877;50.398;30.324;2022-11-12T07:25:59;32.37;;;21.17;;
18168;SDS011;49877;50.398;30.324;2022-11-12T07:28:27;31.80;;;19.83;;
18168;SDS011;49877;50.398;30.324;2022-11-12T07:30:55;34.10;;;21.63;;
18168;SDS011;49877;50.398;30.324;2022-11-12T07:33:23;37.67;;;22.30;;
18168;SDS011;49877;50.398;30.324;2022-11-12T07:35:55;36.03;;;21.07;;
18168;SDS011;49877;50.398;30.324;2022-11-12T07:38:23;32.63;;;21.07;;
18168;SDS011;49877;50.398;30.324;2022-11-12T07:40:56;33.80;;;21.10;;
18168;SDS011;49877;50.398;30.324;2022-11-12T07:43:24;35.87;;;20.87;;
18168;SDS011;49877;50.398;30.324;2022-11-12T07:45:51;38.47;;;21.20;;
18168;SDS011;49877;50.398;30.324;2022-11-12T07:48:17;38.13;;;21.83;;
18168;SDS011;49877;50.398;30.324;2022-11-12T07:50:44;41.03;;;21.03;;
18168;SDS011;49877;50.398;30.324;2022-11-12T07:53:11;39.13;;;23.00;;
18168;SDS011;49877;50.398;30.324;2022-11-12T07:55:38;38.40;;;21.57;;
18168;SDS011;49877;50.398;30.324;2022-11-12T07:58:06;32.83;;;22.20;;
18168;SDS011;49877;50.398;30.324;2022-11-12T08:00:33;37.77;;;21.93;;
18168;SDS011;49877;50.398;30.324;2022-11-12T08:02:59;40.97;;;23.37;;
18168;SDS011;49877;50.398;30.324;2022-11-12T08:05:26;35.30;;;21.50;;
18168;SDS011;49877;50.398;30.324;2022-11-12T08:07:53;37.97;;;22.00;;
18168;SDS011;49877;50.398;30.324;2022-11-12T08:10:20;34.33;;;21.73;;
18168;SDS011;49877;50.398;30.324;2022-11-12T08:12:47;35.00;;;21.10;;
18168;SDS011;49877;50.398;30.324;2022-11-12T08:15:15;37.20;;;21.30;;
18168;SDS011;49877;50.398;30.324;2022-11-12T08:17:42;33.10;;;20.23;;
18168;SDS011;49877;50.398;30.324;2022-11-12T08:20:09;36.77;;;22.77;;
18168;SDS011;49877;50.398;30.324;2022-11-12T08:22:37;37.23;;;22.73;;
18168;SDS011;49877;50.398;30.324;2022-11-12T08:25:04;31.70;;;20.57;;
18168;SDS011;49877;50.398;30.324;2022-11-12T08:27:31;37.40;;;22.00;;
18168;SDS011;49877;50.398;30.324;2022-11-12T08:29:58;38.47;;;21.23;;
18168;SDS011;49877;50.398;30.324;2022-11-12T08:32:27;38.10;;;21.13;;
18168;SDS011;49877;50.398;30.324;2022-11-12T08:34:53;37.93;;;22.40;;
18168;SDS011;49877;50.398;30.324;2022-11-12T08:37:20;36.40;;;21.33;;
18168;SDS011;49877;50.398;30.324;2022-11-12T08:39:47;34.90;;;20.47;;
18168;SDS011;49877;50.398;30.324;2022-11-12T08:42:14;37.33;;;21.30;;
18168;SDS011;49877;50.398;30.324;2022-11-12T08:44:40;39.90;;;20.90;;
18168;SDS011;49877;50.398;30.324;2022-11-12T08:47:07;34.70;;;20.57;;
18168;SDS011;49877;50.398;30.324;2022-11-12T08:49:35;34.07;;;20.33;;
18168;SDS011;49877;50.398;30.324;2022-11-12T08:52:04;32.97;;;20.50;;
18168;SDS011;49877;50.398;30.324;2022-11-12T08:54:31;31.30;;;20.20;;
18168;SDS011;49877;50.398;30.324;2022-11-12T08:56:58;34.00;;;20.03;;
18168;SDS011;49877;50.398;30.324;2022-11-12T08:59:25;30.67;;;19.87;;
18168;SDS011;49877;50.398;30.324;2022-11-12T09:01:51;32.93;;;19.53;;
18168;SDS011;49877;50.398;30.324;2022-11-12T09:04:18;32.43;;;19.53;;
18168;SDS011;49877;50.398;30.324;2022-11-12T09:06:46;30.97;;;18.90;;
18168;SDS011;49877;50.398;30.324;2022-11-12T09:09:13;34.27;;;18.87;;
18168;SDS011;49877;50.398;30.324;2022-11-12T09:11:40;34.60;;;20.20;;
18168;SDS011;49877;50.398;30.324;2022-11-12T18:53:12;26.30;;;15.10;;
18168;SDS011;49877;50.398;30.324;2022-11-12T18:55:39;24.53;;;15.10;;
18168;SDS011;49877;50.398;30.324;2022-11-12T18:58:06;27.30;;;15.57;;
18168;SDS011;49877;50.398;30.324;2022-11-12T19:00:32;26.27;;;15.67;;
18168;SDS011;49877;50.398;30.324;2022-11-12T19:02:59;24.67;;;14.77;;
18168;SDS011;49877;50.398;30.324;2022-11-12T19:05:26;27.17;;;15.80;;
18168;SDS011;49877;50.398;30.324;2022-11-12T19:07:53;24.10;;;15.57;;
18168;SDS011;49877;50.398;30.324;2022-11-12T19:10:21;28.20;;;16.17;;
18168;SDS011;49877;50.398;30.324;2022-11-12T19:12:48;26.00;;;14.83;;
18168;SDS011;49877;50.398;30.324;2022-11-12T19:15:15;27.37;;;15.60;;
18168;SDS011;49877;50.398;30.324;2022-11-12T19:17:41;30.23;;;17.70;;
18168;SDS011;49877;50.398;30.324;2022-11-12T19:20:08;31.00;;;15.83;;
18168;SDS011;49877;50.398;30.324;2022-11-12T19:22:36;28.57;;;17.00;;
18168;SDS011;49877;50.398;30.324;2022-11-12T19:25:03;28.77;;;16.43;;
18168;SDS011;49877;50.398;30.324;2022-11-12T19:27:31;24.27;;;15.20;;
18168;SDS011;49877;50.398;30.324;2022-11-12T19:29:58;27.00;;;15.40;;
18168;SDS011;49877;50.398;30.324;2022-11-12T19:32:25;25.10;;;15.07;;
18168;SDS011;49877;50.398;30.324;2022-11-12T19:34:52;24.37;;;15.17;;
18168;SDS011;49877;50.398;30.324;2022-11-12T19:37:19;25.73;;;15.50;;
18168;SDS011;49877;50.398;30.324;2022-11-12T19:39:45;23.83;;;14.40;;
18168;SDS011;49877;50.398;30.324;2022-11-12T19:42:12;26.57;;;14.60;;
18168;SDS011;49877;50.398;30.324;2022-11-12T19:44:40;22.90;;;14.50;;
18168;SDS011;49877;50.398;30.324;2022-11-12T19:47:07;22.13;;;14.00;;
18168;SDS011;49877;50.398;30.324;2022-11-12T19:49:34;23.73;;;12.73;;
18168;SDS011;49877;50.398;30.324;2022-11-12T19:52:01;21.07;;;13.40;;
18168;SDS011;49877;50.398;30.324;2022-11-12T19:54:27;32.97;;;19.53;;
18168;SDS011;49877;50.398;30.324;2022-11-12T19:56:54;25.60;;;14.23;;
18168;SDS011;49877;50.398;30.324;2022-11-12T19:59:21;19.57;;;12.53;;
18168;SDS011;49877;50.398;30.324;2022-11-12T20:01:49;25.73;;;12.90;;
18168;SDS011;49877;50.398;30.324;2022-11-12T20:04:16;19.90;;;12.53;;
18168;SDS011;49877;50.398;30.324;2022-11-12T20:06:43;19.17;;;12.13;;
18168;SDS011;49877;50.398;30.324;2022-11-12T20:09:09;20.00;;;12.10;;
18168;SDS011;49877;50.398;30.324;2022-11-12T20:11:36;18.90;;;12.03;;
18168;SDS011;49877;50.398;30.324;2022-11-12T20:14:03;16.03;;;10.97;;
18168;SDS011;49877;50.398;30.324;2022-11-12T20:16:30;18.97;;;11.63;;
18168;SDS011;49877;50.398;30.324;2022-11-12T20:18:58;16.93;;;11.60;;
18168;SDS011;49877;50.398;30.324;2022-11-12T20:21:25;19.80;;;10.67;;
18168;SDS011;49877;50.398;30.324;2022-11-12T20:23:52;18.37;;;10.50;;
18168;SDS011;49877;50.398;30.324;2022-11-12T20:26:19;17.63;;;10.27;;
18168;SDS011;49877;50.398;30.324;2022-11-12T20:28:45;16.23;;;10.13;;
18168;SDS011;49877;50.398;30.324;2022-11-12T20:31:13;20.37;;;10.70;;
18168;SDS011;49877;50.398;30.324;2022-11-12T20:33:41;15.77;;;9.13;;
18168;SDS011;49877;50.398;30.324;2022-11-12T20:36:10;12.00;;;8.23;;
18168;SDS011;49877;50.398;30.324;2022-11-12T20:38:38;11.10;;;7.27;;
18168;SDS011;49877;50.398;30.324;2022-11-12T20:41:06;10.30;;;7.23;;
18168;SDS011;49877;50.398;30.324;2022-11-12T20:43:37;11.07;;;7.33;;
18168;SDS011;49877;50.398;30.324;2022-11-12T20:46:04;12.43;;;7.30;;
18168;SDS011;49877;50.398;30.324;2022-11-12T20:48:31;8.73;;;6.33;;
18168;SDS011;49877;50.398;30.324;2022-11-12T20:51:01;10.73;;;6.63;;
18168;SDS011;49877;50.398;30.324;2022-11-12T20:53:31;9.97;;;6.73;;
18168;SDS011;49877;50.398;30.324;2022-11-12T20:56:05;10.83;;;8.40;;
18168;SDS011;49877;50.398;30.324;2022-11-12T20:58:33;10.90;;;7.50;;
18168;SDS011;49877;50.398;30.324;2022-11-12T21:01:01;10.03;;;6.63;;
18168;SDS011;49877;50.398;30.324;2022-11-12T21:03:28;8.77;;;7.13;;
18168;SDS011;49877;50.398;30.324;2022-11-12T21:05:55;8.87;;;6.57;;
18168;SDS011;49877;50.398;30.324;2022-11-12T21:08:23;11.23;;;7.27;;
18168;SDS011;49877;50.398;30.324;2022-11-12T21:10:51;11.43;;;7.40;;
18168;SDS011;49877;50.398;30.324;2022-11-12T21:13:19;10.40;;;7.17;;
18168;SDS011;49877;50.398;30.324;2022-11-12T21:15:47;9.67;;;6.63;;
18168;SDS011;49877;50.398;30.324;2022-11-12T21:18:15;7.67;;;5.90;;
18168;SDS011;49877;50.398;30.324;2022-11-12T21:20:42;11.23;;;6.17;;
18168;SDS011;49877;50.398;30.324;2022-11-12T21:23:09;8.97;;;6.00;;
18168;SDS011;49877;50.398;30.324;2022-11-12T21:25:37;7.43;;;5.60;;
18168;SDS011;49877;50.398;30.324;2022-11-12T21:28:05;8.97;;;6.33;;
18168;SDS011;49877;50.398;30.324;2022-11-12T21:30:32;11.03;;;6.80;;
18168;SDS011;49877;50.398;30.324;2022-11-12T21:32:59;10.20;;;6.20;;
18168;SDS011;49877;50.398;30.324;2022-11-12T21:35:26;9.17;;;6.07;;
18168;SDS011;49877;50.398;30.324;2022-11-12T21:37:53;8.40;;;5.80;;
18168;SDS011;49877;50.398;30.324;2022-11-12T21:40:20;7.87;;;5.57;;
18168;SDS011;49877;50.398;30.324;2022-11-12T21:42:49;6.63;;;5.30;;
18168;SDS011;49877;50.398;30.324;2022-11-12T21:45:17;9.63;;;5.20;;
18168;SDS011;49877;50.398;30.324;2022-11-12T21:47:44;7.93;;;5.27;;
18168;SDS011;49877;50.398;30.324;2022-11-12T21:50:10;7.00;;;4.97;;
18168;SDS011;49877;50.398;30.324;2022-11-12T21:52:37;7.37;;;5.23;;
18168;SDS011;49877;50.398;30.324;2022-11-12T21:55:04;6.80;;;4.60;;
18168;SDS011;49877;50.398;30.324;2022-11-12T21:57:32;6.73;;;4.50;;
18168;SDS011;49877;50.398;30.324;2022-11-12T21:59:59;7.10;;;4.60;;
18168;SDS011;49877;50.398;30.324;2022-11-12T22:02:27;6.77;;;4.80;;
18168;SDS011;49877;50.398;30.324;2022-11-12T22:04:54;6.83;;;4.77;;
18168;SDS011;49877;50.398;30.324;2022-11-12T22:07:20;5.63;;;4.23;;
18168;SDS011;49877;50.398;30.324;2022-11-12T22:09:47;6.87;;;4.33;;
18168;SDS011;49877;50.398;30.324;2022-11-12T22:12:14;7.23;;;4.60;;
18168;SDS011;49877;50.398;30.324;2022-11-12T22:14:41;7.60;;;4.50;;
18168;SDS011;49877;50.398;30.324;2022-11-12T22:17:08;6.73;;;4.50;;
18168;SDS011;49877;50.398;30.324;2022-11-12T22:19:36;5.87;;;4.50;;
18168;SDS011;49877;50.398;30.324;2022-11-12T22:22:03;8.50;;;4.57;;
18168;SDS011;49877;50.398;30.324;2022-11-12T22:24:29;6.70;;;4.20;;
18168;SDS011;49877;50.398;30.324;2022-11-12T22:26:56;6.97;;;4.50;;
18168;SDS011;49877;50.398;30.324;2022-11-12T22:29:23;6.83;;;4.13;;
18168;SDS011;49877;50.398;30.324;2022-11-12T22:31:50;6.23;;;4.20;;
18168;SDS011;49877;50.398;30.324;2022-11-12T22:34:16;5.60;;;3.80;;
18168;SDS011;49877;50.398;30.324;2022-11-12T22:36:45;5.50;;;3.90;;
18168;SDS011;49877;50.398;30.324;2022-11-12T22:39:11;5.87;;;4.00;;
18168;SDS011;49877;50.398;30.324;2022-11-12T22:41:38;6.07;;;4.10;;
18168;SDS011;49877;50.398;30.324;2022-11-12T22:44:05;9.90;;;4.43;;
18168;SDS011;49877;50.398;30.324;2022-11-12T22:46:32;7.13;;;4.07;;
18168;SDS011;49877;50.398;30.324;2022-11-12T22:49:00;8.23;;;4.47;;
18168;SDS011;49877;50.398;30.324;2022-11-12T22:51:28;8.23;;;4.87;;
18168;SDS011;49877;50.398;30.324;2022-11-12T22:53:58;10.17;;;5.47;;
18168;SDS011;49877;50.398;30.324;2022-11-12T22:56:26;7.50;;;5.33;;
18168;SDS011;49877;50.398;30.324;2022-11-12T22:58:54;8.60;;;5.30;;
18168;SDS011;49877;50.398;30.324;2022-11-12T23:01:22;9.57;;;6.03;;
18168;SDS011;49877;50.398;30.324;2022-11-12T23:03:53;8.13;;;5.67;;
18168;SDS011;49877;50.398;30.324;2022-11-12T23:06:21;10.10;;;6.70;;
18168;SDS011;49877;50.398;30.324;2022-11-12T23:08:48;9.43;;;5.70;;
18168;SDS011;49877;50.398;30.324;2022-11-12T23:11:17;8.63;;;5.50;;
18168;SDS011;49877;50.398;30.324;2022-11-12T23:13:45;8.23;;;5.53;;
18168;SDS011;49877;50.398;30.324;2022-11-12T23:16:14;8.03;;;4.83;;
18168;SDS011;49877;50.398;30.324;2022-11-12T23:18:42;7.70;;;5.13;;
18168;SDS011;49877;50.398;30.324;2022-11-12T23:21:12;7.30;;;4.87;;
18168;SDS011;49877;50.398;30.324;2022-11-12T23:23:40;7.43;;;5.20;;
18168;SDS011;49877;50.398;30.324;2022-11-12T23:26:08;9.13;;;5.20;;
18168;SDS011;49877;50.398;30.324;2022-11-12T23:28:38;8.60;;;5.80;;
18168;SDS011;49877;50.398;30.324;2022-11-12T23:31:11;8.93;;;6.00;;
18168;SDS011;49877;50.398;30.324;2022-11-12T23:33:42;8.37;;;6.30;;
18168;SDS011;49877;50.398;30.324;2022-11-12T23:36:09;10.57;;;6.47;;
18168;SDS011;49877;50.398;30.324;2022-11-12T23:38:36;11.57;;;7.00;;
18168;SDS011;49877;50.398;30.324;2022-11-12T23:41:04;9.43;;;6.20;;
18168;SDS011;49877;50.398;30.324;2022-11-12T23:43:31;10.00;;;6.40;;
18168;SDS011;49877;50.398;30.324;2022-11-12T23:45:59;13.47;;;6.93;;
18168;SDS011;49877;50.398;30.324;2022-11-12T23:48:26;10.07;;;5.70;;
18168;SDS011;49877;50.398;30.324;2022-11-12T23:50:58;9.13;;;6.07;;
18168;SDS011;49877;50.398;30.324;2022-11-12T23:53:26;11.30;;;5.43;;
18168;SDS011;49877;50.398;30.324;2022-11-12T23:55:53;9.87;;;5.83;;
18168;SDS011;49877;50.398;30.324;2022-11-12T23:58:20;10.87;;;6.03;;
